Terminal Aerodrome Forecast
Issued by NWS Wilmington, OH

Current Version | Previous Version | Graphics & Text | Print | Product List | Glossary On
Versions: 1 2 3 4 5 6 7 8 9 10 11 12 13 14 15 16 17 18 19 20 21
923
FTUS41 KILN 200209 AAA
TAFCMH
TAF AMD
KCMH 200209Z 2002/2024 VRB03KT 4SM BR SCT250
     FM200800 00000KT 1SM BR OVC008
     FM201500 14004KT P6SM SCT015
     FM201800 13006KT P6SM SCT200=

USA.gov is the U.S. government's official web portal to all federal, state and local government web resources and services.